sensor_id;sensor_type;location;lat;lon;timestamp;temperature;humidity
44431;DHT22;30135;47.866;-4.222;2023-05-20T00:00:44;14.70;76.00
44431;DHT22;30135;47.866;-4.222;2023-05-20T00:03:17;14.70;76.10
44431;DHT22;30135;47.866;-4.222;2023-05-20T00:05:44;14.70;76.10
44431;DHT22;30135;47.866;-4.222;2023-05-20T00:08:11;14.70;76.10
44431;DHT22;30135;47.866;-4.222;2023-05-20T00:10:37;14.70;76.00
44431;DHT22;30135;47.866;-4.222;2023-05-20T00:13:03;14.70;75.90
44431;DHT22;30135;47.866;-4.222;2023-05-20T00:15:31;14.70;75.90
44431;DHT22;30135;47.866;-4.222;2023-05-20T00:18:01;14.70;75.90
44431;DHT22;30135;47.866;-4.222;2023-05-20T00:20:28;14.70;75.90
44431;DHT22;30135;47.866;-4.222;2023-05-20T00:22:55;14.70;75.80
44431;DHT22;30135;47.866;-4.222;2023-05-20T00:25:21;14.70;75.60
44431;DHT22;30135;47.866;-4.222;2023-05-20T00:27:47;14.70;75.50
44431;DHT22;30135;47.866;-4.222;2023-05-20T00:30:13;14.70;75.20
44431;DHT22;30135;47.866;-4.222;2023-05-20T00:32:39;14.70;75.00
44431;DHT22;30135;47.866;-4.222;2023-05-20T00:35:05;14.70;74.80
44431;DHT22;30135;47.866;-4.222;2023-05-20T00:37:32;14.70;74.50
44431;DHT22;30135;47.866;-4.222;2023-05-20T00:39:58;14.70;74.30
44431;DHT22;30135;47.866;-4.222;2023-05-20T00:42:26;14.70;74.10
44431;DHT22;30135;47.866;-4.222;2023-05-20T00:44:54;14.70;73.90
44431;DHT22;30135;47.866;-4.222;2023-05-20T00:47:25;14.60;73.80
44431;DHT22;30135;47.866;-4.222;2023-05-20T00:49:54;14.60;73.60
44431;DHT22;30135;47.866;-4.222;2023-05-20T00:52:21;14.60;73.50
44431;DHT22;30135;47.866;-4.222;2023-05-20T00:54:48;14.60;73.40
44431;DHT22;30135;47.866;-4.222;2023-05-20T00:57:15;14.60;73.30
44431;DHT22;30135;47.866;-4.222;2023-05-20T00:59:42;14.60;73.20
44431;DHT22;30135;47.866;-4.222;2023-05-20T01:02:08;14.60;73.10
44431;DHT22;30135;47.866;-4.222;2023-05-20T01:04:34;14.60;73.10
44431;DHT22;30135;47.866;-4.222;2023-05-20T01:07:03;14.60;73.10
44431;DHT22;30135;47.866;-4.222;2023-05-20T01:09:31;14.50;72.90
44431;DHT22;30135;47.866;-4.222;2023-05-20T01:12:47;14.50;73.00
44431;DHT22;30135;47.866;-4.222;2023-05-20T01:15:09;14.50;73.00
44431;DHT22;30135;47.866;-4.222;2023-05-20T01:17:42;14.50;73.10
44431;DHT22;30135;47.866;-4.222;2023-05-20T01:20:12;14.50;73.10
44431;DHT22;30135;47.866;-4.222;2023-05-20T01:22:52;14.50;73.10
44431;DHT22;30135;47.866;-4.222;2023-05-20T01:25:19;14.40;73.00
44431;DHT22;30135;47.866;-4.222;2023-05-20T01:27:46;14.50;73.20
44431;DHT22;30135;47.866;-4.222;2023-05-20T01:30:14;14.40;73.10
44431;DHT22;30135;47.866;-4.222;2023-05-20T01:32:45;14.40;73.10
44431;DHT22;30135;47.866;-4.222;2023-05-20T01:35:15;14.40;73.20
44431;DHT22;30135;47.866;-4.222;2023-05-20T01:37:42;14.40;73.30
44431;DHT22;30135;47.866;-4.222;2023-05-20T01:40:12;14.40;73.50
44431;DHT22;30135;47.866;-4.222;2023-05-20T01:42:42;14.40;73.50
44431;DHT22;30135;47.866;-4.222;2023-05-20T01:45:10;14.40;73.60
44431;DHT22;30135;47.866;-4.222;2023-05-20T01:47:36;14.30;73.60
44431;DHT22;30135;47.866;-4.222;2023-05-20T01:50:03;14.30;73.60
44431;DHT22;30135;47.866;-4.222;2023-05-20T01:52:32;14.30;73.70
44431;DHT22;30135;47.866;-4.222;2023-05-20T01:54:58;14.30;73.80
44431;DHT22;30135;47.866;-4.222;2023-05-20T01:57:24;14.30;73.80
44431;DHT22;30135;47.866;-4.222;2023-05-20T01:59:50;14.30;73.80
44431;DHT22;30135;47.866;-4.222;2023-05-20T02:02:16;14.30;73.80
44431;DHT22;30135;47.866;-4.222;2023-05-20T02:04:46;14.30;73.90
44431;DHT22;30135;47.866;-4.222;2023-05-20T02:07:14;14.30;74.00
44431;DHT22;30135;47.866;-4.222;2023-05-20T02:09:40;14.30;74.10
44431;DHT22;30135;47.866;-4.222;2023-05-20T02:12:07;14.30;74.20
44431;DHT22;30135;47.866;-4.222;2023-05-20T02:14:33;14.30;74.20
44431;DHT22;30135;47.866;-4.222;2023-05-20T02:16:59;14.30;74.20
44431;DHT22;30135;47.866;-4.222;2023-05-20T02:19:25;14.20;74.20
44431;DHT22;30135;47.866;-4.222;2023-05-20T02:21:53;14.20;74.20
44431;DHT22;30135;47.866;-4.222;2023-05-20T02:24:19;14.20;74.30
44431;DHT22;30135;47.866;-4.222;2023-05-20T02:26:45;14.20;74.40
44431;DHT22;30135;47.866;-4.222;2023-05-20T02:29:13;14.20;74.50
44431;DHT22;30135;47.866;-4.222;2023-05-20T02:31:39;14.20;74.50
44431;DHT22;30135;47.866;-4.222;2023-05-20T02:34:05;14.10;74.50
44431;DHT22;30135;47.866;-4.222;2023-05-20T02:36:31;14.10;74.50
44431;DHT22;30135;47.866;-4.222;2023-05-20T02:38:57;14.10;74.50
44431;DHT22;30135;47.866;-4.222;2023-05-20T02:41:23;14.10;74.50
44431;DHT22;30135;47.866;-4.222;2023-05-20T02:43:49;14.10;74.60
44431;DHT22;30135;47.866;-4.222;2023-05-20T02:46:15;14.10;74.70
44431;DHT22;30135;47.866;-4.222;2023-05-20T02:48:43;14.10;74.80
44431;DHT22;30135;47.866;-4.222;2023-05-20T02:51:15;14.10;74.80
44431;DHT22;30135;47.866;-4.222;2023-05-20T02:53:41;14.10;74.90
44431;DHT22;30135;47.866;-4.222;2023-05-20T02:56:07;14.00;74.80
44431;DHT22;30135;47.866;-4.222;2023-05-20T02:58:34;14.00;74.80
44431;DHT22;30135;47.866;-4.222;2023-05-20T03:01:03;14.00;75.70
44431;DHT22;30135;47.866;-4.222;2023-05-20T03:03:30;14.00;74.90
44431;DHT22;30135;47.866;-4.222;2023-05-20T03:05:56;14.00;75.00
44431;DHT22;30135;47.866;-4.222;2023-05-20T03:08:22;14.00;75.10
44431;DHT22;30135;47.866;-4.222;2023-05-20T03:10:48;14.00;75.20
44431;DHT22;30135;47.866;-4.222;2023-05-20T03:13:15;14.00;75.30
44431;DHT22;30135;47.866;-4.222;2023-05-20T03:15:41;13.90;75.30
44431;DHT22;30135;47.866;-4.222;2023-05-20T03:18:11;13.90;75.30
44431;DHT22;30135;47.866;-4.222;2023-05-20T03:20:38;13.90;75.50
44431;DHT22;30135;47.866;-4.222;2023-05-20T03:23:06;13.80;75.50
44431;DHT22;30135;47.866;-4.222;2023-05-20T03:25:32;13.90;75.50
44431;DHT22;30135;47.866;-4.222;2023-05-20T03:27:58;13.80;75.60
44431;DHT22;30135;47.866;-4.222;2023-05-20T03:30:25;13.80;75.60
44431;DHT22;30135;47.866;-4.222;2023-05-20T03:32:53;13.90;75.70
44431;DHT22;30135;47.866;-4.222;2023-05-20T03:35:20;13.80;75.60
44431;DHT22;30135;47.866;-4.222;2023-05-20T03:37:46;13.80;75.60
44431;DHT22;30135;47.866;-4.222;2023-05-20T03:40:12;13.80;75.60
44431;DHT22;30135;47.866;-4.222;2023-05-20T03:42:38;13.80;75.70
44431;DHT22;30135;47.866;-4.222;2023-05-20T03:45:05;13.80;75.60
44431;DHT22;30135;47.866;-4.222;2023-05-20T03:47:31;13.70;75.60
44431;DHT22;30135;47.866;-4.222;2023-05-20T03:49:57;13.70;75.70
44431;DHT22;30135;47.866;-4.222;2023-05-20T03:52:26;13.70;75.60
44431;DHT22;30135;47.866;-4.222;2023-05-20T03:54:53;13.70;75.70
44431;DHT22;30135;47.866;-4.222;2023-05-20T03:57:19;13.70;75.80
44431;DHT22;30135;47.866;-4.222;2023-05-20T03:59:45;13.70;75.80
44431;DHT22;30135;47.866;-4.222;2023-05-20T04:02:11;13.70;75.80
44431;DHT22;30135;47.866;-4.222;2023-05-20T04:04:37;13.70;75.90
44431;DHT22;30135;47.866;-4.222;2023-05-20T04:07:04;13.70;75.90
44431;DHT22;30135;47.866;-4.222;2023-05-20T04:09:30;13.60;75.90
44431;DHT22;30135;47.866;-4.222;2023-05-20T04:11:56;13.60;75.90
44431;DHT22;30135;47.866;-4.222;2023-05-20T04:14:22;13.60;75.90
44431;DHT22;30135;47.866;-4.222;2023-05-20T04:16:48;13.60;76.00
44431;DHT22;30135;47.866;-4.222;2023-05-20T04:19:14;13.60;76.10
44431;DHT22;30135;47.866;-4.222;2023-05-20T04:21:42;13.50;76.10
44431;DHT22;30135;47.866;-4.222;2023-05-20T04:24:08;13.50;76.20
44431;DHT22;30135;47.866;-4.222;2023-05-20T04:26:34;13.50;76.30
44431;DHT22;30135;47.866;-4.222;2023-05-20T04:29:01;13.50;76.40
44431;DHT22;30135;47.866;-4.222;2023-05-20T04:31:29;13.40;76.40
44431;DHT22;30135;47.866;-4.222;2023-05-20T04:33:56;13.40;76.50
44431;DHT22;30135;47.866;-4.222;2023-05-20T04:36:22;13.40;76.60
44431;DHT22;30135;47.866;-4.222;2023-05-20T04:38:56;13.40;76.70
44431;DHT22;30135;47.866;-4.222;2023-05-20T04:41:22;13.30;76.70
44431;DHT22;30135;47.866;-4.222;2023-05-20T04:43:49;13.30;76.80
44431;DHT22;30135;47.866;-4.222;2023-05-20T04:46:15;13.30;76.90
44431;DHT22;30135;47.866;-4.222;2023-05-20T04:48:41;13.30;77.00
44431;DHT22;30135;47.866;-4.222;2023-05-20T04:51:09;13.30;77.10
44431;DHT22;30135;47.866;-4.222;2023-05-20T04:53:35;13.30;77.30
44431;DHT22;30135;47.866;-4.222;2023-05-20T04:56:01;13.20;77.40
44431;DHT22;30135;47.866;-4.222;2023-05-20T04:58:27;13.20;77.40
44431;DHT22;30135;47.866;-4.222;2023-05-20T05:00:54;13.20;77.50
44431;DHT22;30135;47.866;-4.222;2023-05-20T05:03:21;13.20;77.70
44431;DHT22;30135;47.866;-4.222;2023-05-20T05:05:56;13.10;77.80
44431;DHT22;30135;47.866;-4.222;2023-05-20T05:08:23;13.10;78.00
44431;DHT22;30135;47.866;-4.222;2023-05-20T05:10:50;13.10;78.00
44431;DHT22;30135;47.866;-4.222;2023-05-20T05:13:16;13.10;78.20
44431;DHT22;30135;47.866;-4.222;2023-05-20T05:15:42;13.10;78.30
44431;DHT22;30135;47.866;-4.222;2023-05-20T05:18:08;13.10;78.40
44431;DHT22;30135;47.866;-4.222;2023-05-20T05:20:34;13.10;78.50
44431;DHT22;30135;47.866;-4.222;2023-05-20T05:23:00;13.10;78.70
44431;DHT22;30135;47.866;-4.222;2023-05-20T05:25:26;13.10;78.80
44431;DHT22;30135;47.866;-4.222;2023-05-20T05:27:52;13.10;78.80
44431;DHT22;30135;47.866;-4.222;2023-05-20T05:30:22;13.10;78.90
44431;DHT22;30135;47.866;-4.222;2023-05-20T05:32:48;13.10;79.00
44431;DHT22;30135;47.866;-4.222;2023-05-20T05:35:14;13.10;79.10
44431;DHT22;30135;47.866;-4.222;2023-05-20T05:37:40;13.10;79.30
44431;DHT22;30135;47.866;-4.222;2023-05-20T05:40:06;13.10;79.20
44431;DHT22;30135;47.866;-4.222;2023-05-20T05:42:33;13.20;79.30
44431;DHT22;30135;47.866;-4.222;2023-05-20T05:44:59;13.20;79.20
44431;DHT22;30135;47.866;-4.222;2023-05-20T05:47:25;13.20;79.30
44431;DHT22;30135;47.866;-4.222;2023-05-20T05:49:57;13.20;79.30
44431;DHT22;30135;47.866;-4.222;2023-05-20T05:52:25;13.20;79.40
44431;DHT22;30135;47.866;-4.222;2023-05-20T05:54:52;13.20;79.30
44431;DHT22;30135;47.866;-4.222;2023-05-20T05:57:18;13.20;79.30
44431;DHT22;30135;47.866;-4.222;2023-05-20T05:59:44;13.30;79.30
44431;DHT22;30135;47.866;-4.222;2023-05-20T06:02:10;13.30;79.30
44431;DHT22;30135;47.866;-4.222;2023-05-20T06:04:39;13.30;79.30
44431;DHT22;30135;47.866;-4.222;2023-05-20T06:07:05;13.40;79.40
44431;DHT22;30135;47.866;-4.222;2023-05-20T06:09:31;13.40;80.20
44431;DHT22;30135;47.866;-4.222;2023-05-20T06:11:56;13.40;79.40
44431;DHT22;30135;47.866;-4.222;2023-05-20T06:14:22;13.40;79.40
44431;DHT22;30135;47.866;-4.222;2023-05-20T06:16:48;13.50;79.50
44431;DHT22;30135;47.866;-4.222;2023-05-20T06:19:14;13.50;79.50
44431;DHT22;30135;47.866;-4.222;2023-05-20T06:21:40;13.50;79.50
44431;DHT22;30135;47.866;-4.222;2023-05-20T06:24:06;13.50;79.50
44431;DHT22;30135;47.866;-4.222;2023-05-20T06:26:32;13.60;79.50
44431;DHT22;30135;47.866;-4.222;2023-05-20T06:28:58;13.60;79.50
44431;DHT22;30135;47.866;-4.222;2023-05-20T06:31:24;13.60;79.50
44431;DHT22;30135;47.866;-4.222;2023-05-20T06:33:50;13.60;79.50
44431;DHT22;30135;47.866;-4.222;2023-05-20T06:36:16;13.60;79.50
44431;DHT22;30135;47.866;-4.222;2023-05-20T06:38:42;13.70;79.60
44431;DHT22;30135;47.866;-4.222;2023-05-20T06:41:08;13.70;79.80
44431;DHT22;30135;47.866;-4.222;2023-05-20T06:43:34;13.70;79.60
44431;DHT22;30135;47.866;-4.222;2023-05-20T06:46:00;13.70;79.70
44431;DHT22;30135;47.866;-4.222;2023-05-20T06:48:26;13.70;79.80
44431;DHT22;30135;47.866;-4.222;2023-05-20T06:50:52;13.80;79.90
44431;DHT22;30135;47.866;-4.222;2023-05-20T06:53:18;13.80;79.80
44431;DHT22;30135;47.866;-4.222;2023-05-20T06:55:44;13.80;79.90
44431;DHT22;30135;47.866;-4.222;2023-05-20T06:58:10;13.90;79.90
44431;DHT22;30135;47.866;-4.222;2023-05-20T07:00:36;13.90;79.80
44431;DHT22;30135;47.866;-4.222;2023-05-20T07:03:02;13.90;79.80
44431;DHT22;30135;47.866;-4.222;2023-05-20T07:05:28;14.00;79.80
44431;DHT22;30135;47.866;-4.222;2023-05-20T07:07:54;14.00;79.80
44431;DHT22;30135;47.866;-4.222;2023-05-20T07:10:20;14.00;79.70
44431;DHT22;30135;47.866;-4.222;2023-05-20T07:12:46;14.10;79.60
44431;DHT22;30135;47.866;-4.222;2023-05-20T07:15:12;14.10;80.40
44431;DHT22;30135;47.866;-4.222;2023-05-20T07:17:38;14.10;79.50
44431;DHT22;30135;47.866;-4.222;2023-05-20T07:20:07;14.10;80.00
44431;DHT22;30135;47.866;-4.222;2023-05-20T07:22:36;14.20;79.20
44431;DHT22;30135;47.866;-4.222;2023-05-20T07:25:03;14.30;78.70
44431;DHT22;30135;47.866;-4.222;2023-05-20T07:27:29;14.20;78.50
44431;DHT22;30135;47.866;-4.222;2023-05-20T07:29:55;14.30;78.40
44431;DHT22;30135;47.866;-4.222;2023-05-20T07:32:21;14.30;78.00
44431;DHT22;30135;47.866;-4.222;2023-05-20T07:34:47;14.40;78.00
44431;DHT22;30135;47.866;-4.222;2023-05-20T07:37:13;14.40;77.90
44431;DHT22;30135;47.866;-4.222;2023-05-20T07:39:40;14.40;77.60
44431;DHT22;30135;47.866;-4.222;2023-05-20T07:42:06;14.50;78.10
44431;DHT22;30135;47.866;-4.222;2023-05-20T07:44:32;14.50;77.00
44431;DHT22;30135;47.866;-4.222;2023-05-20T07:46:58;14.50;76.60
44431;DHT22;30135;47.866;-4.222;2023-05-20T07:49:25;14.60;76.30
44431;DHT22;30135;47.866;-4.222;2023-05-20T07:51:51;14.60;76.10
44431;DHT22;30135;47.866;-4.222;2023-05-20T07:54:17;14.70;76.00
44431;DHT22;30135;47.866;-4.222;2023-05-20T07:56:43;14.70;75.50
44431;DHT22;30135;47.866;-4.222;2023-05-20T07:59:09;14.80;75.00
44431;DHT22;30135;47.866;-4.222;2023-05-20T08:01:35;14.80;74.80
44431;DHT22;30135;47.866;-4.222;2023-05-20T08:04:04;14.80;74.60
44431;DHT22;30135;47.866;-4.222;2023-05-20T08:06:30;14.90;74.30
44431;DHT22;30135;47.866;-4.222;2023-05-20T08:08:57;14.90;74.20
44431;DHT22;30135;47.866;-4.222;2023-05-20T08:11:23;15.00;73.90
44431;DHT22;30135;47.866;-4.222;2023-05-20T08:13:49;15.00;73.60
44431;DHT22;30135;47.866;-4.222;2023-05-20T08:16:15;15.00;72.70
44431;DHT22;30135;47.866;-4.222;2023-05-20T08:18:41;15.10;72.40
44431;DHT22;30135;47.866;-4.222;2023-05-20T08:21:07;15.10;72.00
44431;DHT22;30135;47.866;-4.222;2023-05-20T08:23:34;15.10;71.80
44431;DHT22;30135;47.866;-4.222;2023-05-20T08:26:01;15.20;71.10
44431;DHT22;30135;47.866;-4.222;2023-05-20T08:28:35;15.20;71.00
44431;DHT22;30135;47.866;-4.222;2023-05-20T08:31:02;15.30;70.40
44431;DHT22;30135;47.866;-4.222;2023-05-20T08:33:28;15.30;70.50
44431;DHT22;30135;47.866;-4.222;2023-05-20T08:35:54;15.40;70.00
44431;DHT22;30135;47.866;-4.222;2023-05-20T08:38:20;15.40;70.00
44431;DHT22;30135;47.866;-4.222;2023-05-20T08:40:55;15.50;69.70
44431;DHT22;30135;47.866;-4.222;2023-05-20T08:43:22;15.50;69.30
44431;DHT22;30135;47.866;-4.222;2023-05-20T08:45:49;15.60;69.40
44431;DHT22;30135;47.866;-4.222;2023-05-20T08:48:18;15.60;69.30
44431;DHT22;30135;47.866;-4.222;2023-05-20T08:50:50;15.70;68.70
44431;DHT22;30135;47.866;-4.222;2023-05-20T08:53:18;15.70;68.50
44431;DHT22;30135;47.866;-4.222;2023-05-20T08:55:48;15.70;68.60
44431;DHT22;30135;47.866;-4.222;2023-05-20T08:58:18;15.80;68.60
44431;DHT22;30135;47.866;-4.222;2023-05-20T09:00:44;15.90;68.40
44431;DHT22;30135;47.866;-4.222;2023-05-20T09:03:10;15.90;68.30
44431;DHT22;30135;47.866;-4.222;2023-05-20T09:05:36;16.00;67.80
44431;DHT22;30135;47.866;-4.222;2023-05-20T09:08:10;16.00;67.40
44431;DHT22;30135;47.866;-4.222;2023-05-20T09:10:38;16.10;66.30
44431;DHT22;30135;47.866;-4.222;2023-05-20T09:13:07;16.10;66.10
44431;DHT22;30135;47.866;-4.222;2023-05-20T09:15:34;16.20;65.40
44431;DHT22;30135;47.866;-4.222;2023-05-20T09:18:05;16.20;64.90
44431;DHT22;30135;47.866;-4.222;2023-05-20T09:20:36;16.30;65.90
44431;DHT22;30135;47.866;-4.222;2023-05-20T09:23:07;16.30;63.50
44431;DHT22;30135;47.866;-4.222;2023-05-20T09:25:35;16.40;63.30
44431;DHT22;30135;47.866;-4.222;2023-05-20T09:28:06;16.40;61.80
44431;DHT22;30135;47.866;-4.222;2023-05-20T09:30:36;16.50;61.10
44431;DHT22;30135;47.866;-4.222;2023-05-20T09:33:03;16.50;61.40
44431;DHT22;30135;47.866;-4.222;2023-05-20T09:35:30;16.60;60.80
44431;DHT22;30135;47.866;-4.222;2023-05-20T09:37:59;16.60;60.00
44431;DHT22;30135;47.866;-4.222;2023-05-20T09:40:29;16.60;57.40
44431;DHT22;30135;47.866;-4.222;2023-05-20T09:43:07;16.70;59.40
44431;DHT22;30135;47.866;-4.222;2023-05-20T09:45:43;16.70;58.10
44431;DHT22;30135;47.866;-4.222;2023-05-20T09:48:26;16.70;58.10
44431;DHT22;30135;47.866;-4.222;2023-05-20T09:50:53;16.80;58.00
44431;DHT22;30135;47.866;-4.222;2023-05-20T09:53:25;16.80;58.40
44431;DHT22;30135;47.866;-4.222;2023-05-20T09:55:54;16.80;58.10
44431;DHT22;30135;47.866;-4.222;2023-05-20T09:58:22;16.90;57.50
44431;DHT22;30135;47.866;-4.222;2023-05-20T10:00:49;16.90;57.30
44431;DHT22;30135;47.866;-4.222;2023-05-20T10:03:16;17.00;57.10
44431;DHT22;30135;47.866;-4.222;2023-05-20T10:06:24;17.10;57.10
44431;DHT22;30135;47.866;-4.222;2023-05-20T10:12:46;17.20;57.10
44431;DHT22;30135;47.866;-4.222;2023-05-20T10:21:15;17.40;58.80
44431;DHT22;30135;47.866;-4.222;2023-05-20T10:23:41;17.50;58.50
44431;DHT22;30135;47.866;-4.222;2023-05-20T10:26:08;17.50;58.90
44431;DHT22;30135;47.866;-4.222;2023-05-20T10:28:35;17.60;58.50
44431;DHT22;30135;47.866;-4.222;2023-05-20T10:31:13;17.70;58.50
44431;DHT22;30135;47.866;-4.222;2023-05-20T10:33:43;17.70;58.50
44431;DHT22;30135;47.866;-4.222;2023-05-20T10:36:09;17.80;58.80
44431;DHT22;30135;47.866;-4.222;2023-05-20T10:38:58;17.90;59.10
44431;DHT22;30135;47.866;-4.222;2023-05-20T10:41:26;17.90;59.20
44431;DHT22;30135;47.866;-4.222;2023-05-20T10:44:00;18.00;59.30
44431;DHT22;30135;47.866;-4.222;2023-05-20T10:46:34;18.10;59.80
44431;DHT22;30135;47.866;-4.222;2023-05-20T10:49:03;18.20;60.10
44431;DHT22;30135;47.866;-4.222;2023-05-20T10:51:29;18.30;59.90
44431;DHT22;30135;47.866;-4.222;2023-05-20T10:53:58;18.40;59.80
44431;DHT22;30135;47.866;-4.222;2023-05-20T10:56:25;18.50;60.00
44431;DHT22;30135;47.866;-4.222;2023-05-20T10:58:53;18.50;59.80
44431;DHT22;30135;47.866;-4.222;2023-05-20T11:01:23;18.60;59.50
44431;DHT22;30135;47.866;-4.222;2023-05-20T11:03:53;18.60;59.50
44431;DHT22;30135;47.866;-4.222;2023-05-20T11:06:28;18.70;60.10
44431;DHT22;30135;47.866;-4.222;2023-05-20T11:08:54;18.70;60.30
44431;DHT22;30135;47.866;-4.222;2023-05-20T11:11:21;18.80;59.80
44431;DHT22;30135;47.866;-4.222;2023-05-20T11:13:51;18.90;59.90
44431;DHT22;30135;47.866;-4.222;2023-05-20T11:16:20;18.90;59.40
44431;DHT22;30135;47.866;-4.222;2023-05-20T11:18:49;19.00;59.50
44431;DHT22;30135;47.866;-4.222;2023-05-20T11:21:16;19.00;59.60
44431;DHT22;30135;47.866;-4.222;2023-05-20T11:23:43;19.10;59.70
44431;DHT22;30135;47.866;-4.222;2023-05-20T11:26:10;19.20;59.80
44431;DHT22;30135;47.866;-4.222;2023-05-20T11:28:36;19.30;59.20
44431;DHT22;30135;47.866;-4.222;2023-05-20T11:31:03;19.30;59.40
44431;DHT22;30135;47.866;-4.222;2023-05-20T11:33:29;19.40;58.70
44431;DHT22;30135;47.866;-4.222;2023-05-20T11:35:56;19.40;58.60
44431;DHT22;30135;47.866;-4.222;2023-05-20T11:38:22;19.50;58.20
44431;DHT22;30135;47.866;-4.222;2023-05-20T11:40:53;19.50;57.60
44431;DHT22;30135;47.866;-4.222;2023-05-20T11:43:21;19.60;57.70
44431;DHT22;30135;47.866;-4.222;2023-05-20T11:45:53;19.60;57.80
44431;DHT22;30135;47.866;-4.222;2023-05-20T11:48:20;19.80;57.80
44431;DHT22;30135;47.866;-4.222;2023-05-20T11:50:47;19.80;57.40
44431;DHT22;30135;47.866;-4.222;2023-05-20T11:53:15;19.90;57.00
44431;DHT22;30135;47.866;-4.222;2023-05-20T11:55:46;19.90;56.50
44431;DHT22;30135;47.866;-4.222;2023-05-20T11:58:26;20.00;56.30
44431;DHT22;30135;47.866;-4.222;2023-05-20T12:00:56;20.00;56.10
44431;DHT22;30135;47.866;-4.222;2023-05-20T12:03:22;20.10;56.00
44431;DHT22;30135;47.866;-4.222;2023-05-20T12:05:49;20.10;55.80
44431;DHT22;30135;47.866;-4.222;2023-05-20T12:08:17;20.10;56.00
44431;DHT22;30135;47.866;-4.222;2023-05-20T12:10:43;20.20;55.90
44431;DHT22;30135;47.866;-4.222;2023-05-20T12:13:10;20.30;55.80
44431;DHT22;30135;47.866;-4.222;2023-05-20T12:15:38;20.30;56.20
44431;DHT22;30135;47.866;-4.222;2023-05-20T12:18:05;20.40;56.10
44431;DHT22;30135;47.866;-4.222;2023-05-20T12:20:31;20.40;56.30
44431;DHT22;30135;47.866;-4.222;2023-05-20T12:22:59;20.50;56.20
44431;DHT22;30135;47.866;-4.222;2023-05-20T12:25:26;20.50;56.00
44431;DHT22;30135;47.866;-4.222;2023-05-20T12:27:52;20.60;55.40
44431;DHT22;30135;47.866;-4.222;2023-05-20T12:30:20;20.50;55.20
44431;DHT22;30135;47.866;-4.222;2023-05-20T12:32:48;20.50;55.30
44431;DHT22;30135;47.866;-4.222;2023-05-20T12:35:34;20.50;55.20
44431;DHT22;30135;47.866;-4.222;2023-05-20T12:38:04;20.60;55.40
44431;DHT22;30135;47.866;-4.222;2023-05-20T12:40:31;20.60;55.40
44431;DHT22;30135;47.866;-4.222;2023-05-20T12:43:02;20.60;55.20
44431;DHT22;30135;47.866;-4.222;2023-05-20T12:45:29;20.70;55.30
44431;DHT22;30135;47.866;-4.222;2023-05-20T12:47:55;20.70;55.10
44431;DHT22;30135;47.866;-4.222;2023-05-20T12:50:23;20.70;55.40
44431;DHT22;30135;47.866;-4.222;2023-05-20T12:52:50;20.70;55.20
44431;DHT22;30135;47.866;-4.222;2023-05-20T12:55:16;20.70;54.90
44431;DHT22;30135;47.866;-4.222;2023-05-20T12:57:43;20.70;54.60
44431;DHT22;30135;47.866;-4.222;2023-05-20T13:00:10;20.60;54.40
44431;DHT22;30135;47.866;-4.222;2023-05-20T13:02:38;20.60;54.40
44431;DHT22;30135;47.866;-4.222;2023-05-20T13:05:06;20.70;54.50
44431;DHT22;30135;47.866;-4.222;2023-05-20T13:07:32;20.70;54.60
44431;DHT22;30135;47.866;-4.222;2023-05-20T13:09:59;20.70;54.20
44431;DHT22;30135;47.866;-4.222;2023-05-20T13:12:25;20.70;53.90
44431;DHT22;30135;47.866;-4.222;2023-05-20T13:14:51;20.70;53.90
44431;DHT22;30135;47.866;-4.222;2023-05-20T13:17:17;20.70;53.90
44431;DHT22;30135;47.866;-4.222;2023-05-20T13:19:43;20.70;53.90
44431;DHT22;30135;47.866;-4.222;2023-05-20T13:22:12;20.70;54.00
44431;DHT22;30135;47.866;-4.222;2023-05-20T13:24:38;20.80;54.30
44431;DHT22;30135;47.866;-4.222;2023-05-20T13:27:04;20.80;54.20
44431;DHT22;30135;47.866;-4.222;2023-05-20T13:29:30;20.80;53.90
44431;DHT22;30135;47.866;-4.222;2023-05-20T13:31:57;20.80;53.70
44431;DHT22;30135;47.866;-4.222;2023-05-20T13:34:23;20.80;53.70
44431;DHT22;30135;47.866;-4.222;2023-05-20T13:36:49;20.70;54.00
44431;DHT22;30135;47.866;-4.222;2023-05-20T13:39:16;20.70;54.00
44431;DHT22;30135;47.866;-4.222;2023-05-20T13:41:42;20.60;53.60
44431;DHT22;30135;47.866;-4.222;2023-05-20T13:44:08;20.60;54.00
44431;DHT22;30135;47.866;-4.222;2023-05-20T13:46:34;20.60;54.40
44431;DHT22;30135;47.866;-4.222;2023-05-20T13:49:00;20.70;54.20
44431;DHT22;30135;47.866;-4.222;2023-05-20T13:51:26;20.70;54.00
44431;DHT22;30135;47.866;-4.222;2023-05-20T13:53:53;20.80;53.70
44431;DHT22;30135;47.866;-4.222;2023-05-20T13:56:18;20.90;53.60
44431;DHT22;30135;47.866;-4.222;2023-05-20T13:58:45;21.00;53.40
44431;DHT22;30135;47.866;-4.222;2023-05-20T14:01:12;21.00;53.70
44431;DHT22;30135;47.866;-4.222;2023-05-20T14:03:38;21.00;53.40
44431;DHT22;30135;47.866;-4.222;2023-05-20T14:06:05;21.00;53.40
44431;DHT22;30135;47.866;-4.222;2023-05-20T14:08:32;21.00;53.30
44431;DHT22;30135;47.866;-4.222;2023-05-20T14:10:57;21.00;53.50
44431;DHT22;30135;47.866;-4.222;2023-05-20T14:13:24;21.10;53.70
44431;DHT22;30135;47.866;-4.222;2023-05-20T14:15:51;21.00;53.40
44431;DHT22;30135;47.866;-4.222;2023-05-20T14:18:19;21.00;53.10
44431;DHT22;30135;47.866;-4.222;2023-05-20T14:20:46;21.00;53.20
44431;DHT22;30135;47.866;-4.222;2023-05-20T14:23:12;21.00;53.30
44431;DHT22;30135;47.866;-4.222;2023-05-20T14:25:39;20.90;53.20
44431;DHT22;30135;47.866;-4.222;2023-05-20T14:28:05;20.90;53.00
44431;DHT22;30135;47.866;-4.222;2023-05-20T14:30:31;20.90;53.50
44431;DHT22;30135;47.866;-4.222;2023-05-20T14:32:57;20.90;53.50
44431;DHT22;30135;47.866;-4.222;2023-05-20T14:35:23;20.90;53.60
44431;DHT22;30135;47.866;-4.222;2023-05-20T14:37:49;20.80;53.50
44431;DHT22;30135;47.866;-4.222;2023-05-20T14:40:18;20.80;53.10
44431;DHT22;30135;47.866;-4.222;2023-05-20T14:42:44;20.80;52.80
44431;DHT22;30135;47.866;-4.222;2023-05-20T14:45:10;20.80;52.70
44431;DHT22;30135;47.866;-4.222;2023-05-20T14:47:36;20.80;53.30
44431;DHT22;30135;47.866;-4.222;2023-05-20T14:50:05;20.90;53.30
44431;DHT22;30135;47.866;-4.222;2023-05-20T14:52:31;20.80;52.90
44431;DHT22;30135;47.866;-4.222;2023-05-20T14:54:57;20.70;52.70
44431;DHT22;30135;47.866;-4.222;2023-05-20T14:57:24;20.70;53.10
44431;DHT22;30135;47.866;-4.222;2023-05-20T14:59:50;20.70;53.20
44431;DHT22;30135;47.866;-4.222;2023-05-20T15:02:17;20.70;53.70
44431;DHT22;30135;47.866;-4.222;2023-05-20T15:04:44;20.80;53.00
44431;DHT22;30135;47.866;-4.222;2023-05-20T15:07:13;20.80;52.80
44431;DHT22;30135;47.866;-4.222;2023-05-20T15:09:39;20.80;52.80
44431;DHT22;30135;47.866;-4.222;2023-05-20T15:12:05;20.80;52.90
44431;DHT22;30135;47.866;-4.222;2023-05-20T15:14:31;20.80;52.60
44431;DHT22;30135;47.866;-4.222;2023-05-20T15:16:57;20.80;52.60
44431;DHT22;30135;47.866;-4.222;2023-05-20T15:19:23;20.90;53.10
44431;DHT22;30135;47.866;-4.222;2023-05-20T15:21:49;20.90;52.70
44431;DHT22;30135;47.866;-4.222;2023-05-20T15:24:17;20.90;52.80
44431;DHT22;30135;47.866;-4.222;2023-05-20T15:26:43;20.90;53.10